sensor_id;sensor_type;location;lat;lon;timestamp;P1;durP1;ratioP1;P2;durP2;ratioP2
17949;SDS011;9100;48.700;9.316;2022-12-18T00:00:11;32.1;;;18.9;;
17949;SDS011;9100;48.700;9.316;2022-12-18T00:01:14;32.1;;;18.9;;
17949;SDS011;9100;48.700;9.316;2022-12-18T00:02:10;32.1;;;18.9;;
17949;SDS011;9100;48.700;9.316;2022-12-18T00:03:10;32.1;;;18.9;;
17949;SDS011;9100;48.700;9.316;2022-12-18T00:03:32;27.2;;;16.1;;
17949;SDS011;9100;48.700;9.316;2022-12-18T00:04:15;27.2;;;16.1;;
17949;SDS011;9100;48.700;9.316;2022-12-18T00:05:10;27.2;;;16.1;;
17949;SDS011;9100;48.700;9.316;2022-12-18T00:06:10;27.2;;;16.1;;
17949;SDS011;9100;48.700;9.316;2022-12-18T00:07:10;27.2;;;16.1;;
17949;SDS011;9100;48.700;9.316;2022-12-18T00:08:10;27.2;;;16.1;;
17949;SDS011;9100;48.700;9.316;2022-12-18T00:08:32;30.4;;;19.8;;
17949;SDS011;9100;48.700;9.316;2022-12-18T00:09:10;30.4;;;19.8;;
17949;SDS011;9100;48.700;9.316;2022-12-18T00:10:10;30.4;;;19.8;;
17949;SDS011;9100;48.700;9.316;2022-12-18T00:11:11;30.4;;;19.8;;
17949;SDS011;9100;48.700;9.316;2022-12-18T00:12:10;30.4;;;19.8;;
17949;SDS011;9100;48.700;9.316;2022-12-18T00:13:10;30.4;;;19.8;;
17949;SDS011;9100;48.700;9.316;2022-12-18T00:13:33;37.7;;;20;;
17949;SDS011;9100;48.700;9.316;2022-12-18T00:14:11;37.7;;;20;;
17949;SDS011;9100;48.700;9.316;2022-12-18T00:15:10;37.7;;;20;;
17949;SDS011;9100;48.700;9.316;2022-12-18T00:16:11;37.7;;;20;;
17949;SDS011;9100;48.700;9.316;2022-12-18T00:17:10;37.7;;;20;;
17949;SDS011;9100;48.700;9.316;2022-12-18T00:18:10;37.7;;;20;;
17949;SDS011;9100;48.700;9.316;2022-12-18T00:18:32;37.8;;;19.3;;
17949;SDS011;9100;48.700;9.316;2022-12-18T00:19:10;37.8;;;19.3;;
17949;SDS011;9100;48.700;9.316;2022-12-18T00:20:11;37.8;;;19.3;;
17949;SDS011;9100;48.700;9.316;2022-12-18T00:21:11;37.8;;;19.3;;
17949;SDS011;9100;48.700;9.316;2022-12-18T00:22:10;37.8;;;19.3;;
17949;SDS011;9100;48.700;9.316;2022-12-18T00:23:10;37.8;;;19.3;;
17949;SDS011;9100;48.700;9.316;2022-12-18T00:23:34;26.8;;;17.3;;
17949;SDS011;9100;48.700;9.316;2022-12-18T00:24:11;26.8;;;17.3;;
17949;SDS011;9100;48.700;9.316;2022-12-18T00:25:10;26.8;;;17.3;;
17949;SDS011;9100;48.700;9.316;2022-12-18T00:26:11;26.8;;;17.3;;
17949;SDS011;9100;48.700;9.316;2022-12-18T00:27:10;26.8;;;17.3;;
17949;SDS011;9100;48.700;9.316;2022-12-18T00:28:10;26.8;;;17.3;;
17949;SDS011;9100;48.700;9.316;2022-12-18T00:28:32;30;;;17.6;;
17949;SDS011;9100;48.700;9.316;2022-12-18T00:29:11;30;;;17.6;;
17949;SDS011;9100;48.700;9.316;2022-12-18T00:30:10;30;;;17.6;;
17949;SDS011;9100;48.700;9.316;2022-12-18T00:31:11;30;;;17.6;;
17949;SDS011;9100;48.700;9.316;2022-12-18T00:32:10;30;;;17.6;;
17949;SDS011;9100;48.700;9.316;2022-12-18T00:33:10;30;;;17.6;;
17949;SDS011;9100;48.700;9.316;2022-12-18T00:33:33;33.2;;;17.6;;
17949;SDS011;9100;48.700;9.316;2022-12-18T00:34:11;33.2;;;17.6;;
17949;SDS011;9100;48.700;9.316;2022-12-18T00:35:10;33.2;;;17.6;;
17949;SDS011;9100;48.700;9.316;2022-12-18T00:36:11;33.2;;;17.6;;
17949;SDS011;9100;48.700;9.316;2022-12-18T00:37:11;33.2;;;17.6;;
17949;SDS011;9100;48.700;9.316;2022-12-18T00:38:10;33.2;;;17.6;;
17949;SDS011;9100;48.700;9.316;2022-12-18T00:38:32;20;;;14;;
17949;SDS011;9100;48.700;9.316;2022-12-18T00:39:11;20;;;14;;
17949;SDS011;9100;48.700;9.316;2022-12-18T00:40:11;20;;;14;;
17949;SDS011;9100;48.700;9.316;2022-12-18T00:41:11;20;;;14;;
17949;SDS011;9100;48.700;9.316;2022-12-18T00:42:10;20;;;14;;
17949;SDS011;9100;48.700;9.316;2022-12-18T00:43:10;20;;;14;;
17949;SDS011;9100;48.700;9.316;2022-12-18T00:43:33;30.3;;;18.4;;
17949;SDS011;9100;48.700;9.316;2022-12-18T00:44:11;30.3;;;18.4;;
17949;SDS011;9100;48.700;9.316;2022-12-18T00:45:10;30.3;;;18.4;;
17949;SDS011;9100;48.700;9.316;2022-12-18T00:46:10;30.3;;;18.4;;
17949;SDS011;9100;48.700;9.316;2022-12-18T00:47:10;30.3;;;18.4;;
17949;SDS011;9100;48.700;9.316;2022-12-18T00:48:10;30.3;;;18.4;;
17949;SDS011;9100;48.700;9.316;2022-12-18T00:48:32;30.3;;;16.2;;
17949;SDS011;9100;48.700;9.316;2022-12-18T00:49:10;30.3;;;16.2;;
17949;SDS011;9100;48.700;9.316;2022-12-18T00:50:10;30.3;;;16.2;;
17949;SDS011;9100;48.700;9.316;2022-12-18T00:51:10;30.3;;;16.2;;
17949;SDS011;9100;48.700;9.316;2022-12-18T00:52:10;30.3;;;16.2;;
17949;SDS011;9100;48.700;9.316;2022-12-18T00:53:10;30.3;;;16.2;;
17949;SDS011;9100;48.700;9.316;2022-12-18T00:53:32;26.3;;;18.1;;
17949;SDS011;9100;48.700;9.316;2022-12-18T00:54:10;26.3;;;18.1;;
17949;SDS011;9100;48.700;9.316;2022-12-18T00:55:10;26.3;;;18.1;;
17949;SDS011;9100;48.700;9.316;2022-12-18T00:56:10;26.3;;;18.1;;
17949;SDS011;9100;48.700;9.316;2022-12-18T00:57:10;26.3;;;18.1;;
17949;SDS011;9100;48.700;9.316;2022-12-18T00:58:11;26.3;;;18.1;;
17949;SDS011;9100;48.700;9.316;2022-12-18T00:58:32;25;;;17.4;;
17949;SDS011;9100;48.700;9.316;2022-12-18T00:59:10;25;;;17.4;;
17949;SDS011;9100;48.700;9.316;2022-12-18T01:00:11;25;;;17.4;;
17949;SDS011;9100;48.700;9.316;2022-12-18T01:01:10;25;;;17.4;;
17949;SDS011;9100;48.700;9.316;2022-12-18T01:02:13;25;;;17.4;;
17949;SDS011;9100;48.700;9.316;2022-12-18T01:03:12;25;;;17.4;;
17949;SDS011;9100;48.700;9.316;2022-12-18T01:03:32;16.3;;;11.2;;
17949;SDS011;9100;48.700;9.316;2022-12-18T01:04:10;16.3;;;11.2;;
17949;SDS011;9100;48.700;9.316;2022-12-18T01:05:11;16.3;;;11.2;;
17949;SDS011;9100;48.700;9.316;2022-12-18T01:06:11;16.3;;;11.2;;
17949;SDS011;9100;48.700;9.316;2022-12-18T01:07:10;16.3;;;11.2;;
17949;SDS011;9100;48.700;9.316;2022-12-18T01:12:10;30;;;18;;
17949;SDS011;9100;48.700;9.316;2022-12-18T01:13:10;30;;;18;;
17949;SDS011;9100;48.700;9.316;2022-12-18T11:28:25;22.5;;;15.3;;
17949;SDS011;9100;48.700;9.316;2022-12-18T11:29:15;22.5;;;15.3;;
17949;SDS011;9100;48.700;9.316;2022-12-18T11:30:09;13;;;10;;
17949;SDS011;9100;48.700;9.316;2022-12-18T11:30:20;13;;;10;;
17949;SDS011;9100;48.700;9.316;2022-12-18T11:31:15;13;;;10;;
17949;SDS011;9100;48.700;9.316;2022-12-18T11:32:18;13;;;10;;
17949;SDS011;9100;48.700;9.316;2022-12-18T11:33:12;13;;;10;;
17949;SDS011;9100;48.700;9.316;2022-12-18T11:34:11;13;;;10;;
17949;SDS011;9100;48.700;9.316;2022-12-18T11:35:03;20.9;;;13.2;;
17949;SDS011;9100;48.700;9.316;2022-12-18T11:35:13;20.9;;;13.2;;
17949;SDS011;9100;48.700;9.316;2022-12-18T11:36:11;20.9;;;13.2;;
17949;SDS011;9100;48.700;9.316;2022-12-18T11:37:11;20.9;;;13.2;;
17949;SDS011;9100;48.700;9.316;2022-12-18T11:38:13;20.9;;;13.2;;
17949;SDS011;9100;48.700;9.316;2022-12-18T11:39:12;20.9;;;13.2;;
17949;SDS011;9100;48.700;9.316;2022-12-18T11:40:03;22;;;10.9;;
17949;SDS011;9100;48.700;9.316;2022-12-18T11:40:12;22;;;10.9;;
17949;SDS011;9100;48.700;9.316;2022-12-18T11:41:13;22;;;10.9;;
17949;SDS011;9100;48.700;9.316;2022-12-18T11:42:12;22;;;10.9;;
17949;SDS011;9100;48.700;9.316;2022-12-18T11:43:13;22;;;10.9;;
17949;SDS011;9100;48.700;9.316;2022-12-18T11:44:11;22;;;10.9;;
17949;SDS011;9100;48.700;9.316;2022-12-18T11:45:03;25.9;;;16.1;;
17949;SDS011;9100;48.700;9.316;2022-12-18T11:45:23;25.9;;;16.1;;
17949;SDS011;9100;48.700;9.316;2022-12-18T11:46:12;25.9;;;16.1;;
17949;SDS011;9100;48.700;9.316;2022-12-18T11:47:13;25.9;;;16.1;;
17949;SDS011;9100;48.700;9.316;2022-12-18T11:48:12;25.9;;;16.1;;
17949;SDS011;9100;48.700;9.316;2022-12-18T11:49:12;25.9;;;16.1;;
17949;SDS011;9100;48.700;9.316;2022-12-18T11:50:02;22.8;;;15.9;;
17949;SDS011;9100;48.700;9.316;2022-12-18T11:50:12;22.8;;;15.9;;
17949;SDS011;9100;48.700;9.316;2022-12-18T11:51:12;22.8;;;15.9;;
17949;SDS011;9100;48.700;9.316;2022-12-18T11:52:14;22.8;;;15.9;;
17949;SDS011;9100;48.700;9.316;2022-12-18T11:53:11;22.8;;;15.9;;
17949;SDS011;9100;48.700;9.316;2022-12-18T11:54:11;22.8;;;15.9;;
17949;SDS011;9100;48.700;9.316;2022-12-18T11:55:07;21.5;;;14.4;;
17949;SDS011;9100;48.700;9.316;2022-12-18T11:55:12;21.5;;;14.4;;
17949;SDS011;9100;48.700;9.316;2022-12-18T11:56:16;21.5;;;14.4;;
17949;SDS011;9100;48.700;9.316;2022-12-18T11:57:13;21.5;;;14.4;;
17949;SDS011;9100;48.700;9.316;2022-12-18T11:58:12;21.5;;;14.4;;
17949;SDS011;9100;48.700;9.316;2022-12-18T11:59:13;21.5;;;14.4;;
17949;SDS011;9100;48.700;9.316;2022-12-18T12:00:03;10.1;;;8;;
17949;SDS011;9100;48.700;9.316;2022-12-18T12:00:12;10.1;;;8;;
17949;SDS011;9100;48.700;9.316;2022-12-18T12:01:13;10.1;;;8;;
17949;SDS011;9100;48.700;9.316;2022-12-18T12:02:15;10.1;;;8;;
17949;SDS011;9100;48.700;9.316;2022-12-18T12:03:34;10.1;;;8;;
17949;SDS011;9100;48.700;9.316;2022-12-18T12:04:46;10.1;;;8;;
17949;SDS011;9100;48.700;9.316;2022-12-18T12:05:05;24.7;;;15.6;;
17949;SDS011;9100;48.700;9.316;2022-12-18T12:05:15;24.7;;;15.6;;
17949;SDS011;9100;48.700;9.316;2022-12-18T12:06:12;24.7;;;15.6;;
17949;SDS011;9100;48.700;9.316;2022-12-18T12:07:15;24.7;;;15.6;;
17949;SDS011;9100;48.700;9.316;2022-12-18T12:08:12;24.7;;;15.6;;
17949;SDS011;9100;48.700;9.316;2022-12-18T12:09:12;24.7;;;15.6;;
17949;SDS011;9100;48.700;9.316;2022-12-18T12:10:04;22.1;;;16.1;;
17949;SDS011;9100;48.700;9.316;2022-12-18T12:10:15;22.1;;;16.1;;
17949;SDS011;9100;48.700;9.316;2022-12-18T12:11:12;22.1;;;16.1;;
17949;SDS011;9100;48.700;9.316;2022-12-18T12:12:15;22.1;;;16.1;;
17949;SDS011;9100;48.700;9.316;2022-12-18T12:13:15;22.1;;;16.1;;
17949;SDS011;9100;48.700;9.316;2022-12-18T12:14:15;22.1;;;16.1;;
17949;SDS011;9100;48.700;9.316;2022-12-18T12:15:03;18.6;;;14;;
17949;SDS011;9100;48.700;9.316;2022-12-18T12:15:13;18.6;;;14;;
17949;SDS011;9100;48.700;9.316;2022-12-18T12:16:14;18.6;;;14;;
17949;SDS011;9100;48.700;9.316;2022-12-18T12:17:12;18.6;;;14;;
17949;SDS011;9100;48.700;9.316;2022-12-18T12:18:14;18.6;;;14;;
17949;SDS011;9100;48.700;9.316;2022-12-18T12:19:15;18.6;;;14;;
17949;SDS011;9100;48.700;9.316;2022-12-18T12:20:02;20.6;;;14.6;;
17949;SDS011;9100;48.700;9.316;2022-12-18T12:20:13;20.6;;;14.6;;
17949;SDS011;9100;48.700;9.316;2022-12-18T12:21:13;20.6;;;14.6;;
17949;SDS011;9100;48.700;9.316;2022-12-18T12:22:13;20.6;;;14.6;;
17949;SDS011;9100;48.700;9.316;2022-12-18T12:23:13;20.6;;;14.6;;
17949;SDS011;9100;48.700;9.316;2022-12-18T12:24:15;20.6;;;14.6;;
17949;SDS011;9100;48.700;9.316;2022-12-18T12:25:05;16.5;;;10.9;;
17949;SDS011;9100;48.700;9.316;2022-12-18T12:25:15;16.5;;;10.9;;
17949;SDS011;9100;48.700;9.316;2022-12-18T12:26:12;16.5;;;10.9;;
17949;SDS011;9100;48.700;9.316;2022-12-18T12:27:13;16.5;;;10.9;;
17949;SDS011;9100;48.700;9.316;2022-12-18T12:28:14;16.5;;;10.9;;
17949;SDS011;9100;48.700;9.316;2022-12-18T12:29:16;16.5;;;10.9;;
17949;SDS011;9100;48.700;9.316;2022-12-18T12:30:03;24.6;;;14.9;;
17949;SDS011;9100;48.700;9.316;2022-12-18T12:30:13;24.6;;;14.9;;
17949;SDS011;9100;48.700;9.316;2022-12-18T12:31:12;24.6;;;14.9;;
17949;SDS011;9100;48.700;9.316;2022-12-18T12:32:15;24.6;;;14.9;;
17949;SDS011;9100;48.700;9.316;2022-12-18T12:33:15;24.6;;;14.9;;
17949;SDS011;9100;48.700;9.316;2022-12-18T12:34:13;24.6;;;14.9;;
17949;SDS011;9100;48.700;9.316;2022-12-18T12:35:05;22.6;;;13.3;;
17949;SDS011;9100;48.700;9.316;2022-12-18T12:35:14;22.6;;;13.3;;
17949;SDS011;9100;48.700;9.316;2022-12-18T12:36:13;22.6;;;13.3;;
17949;SDS011;9100;48.700;9.316;2022-12-18T12:37:15;22.6;;;13.3;;
17949;SDS011;9100;48.700;9.316;2022-12-18T12:38:12;22.6;;;13.3;;
17949;SDS011;9100;48.700;9.316;2022-12-18T12:39:12;22.6;;;13.3;;
17949;SDS011;9100;48.700;9.316;2022-12-18T12:40:02;16;;;8.8;;
17949;SDS011;9100;48.700;9.316;2022-12-18T12:40:11;16;;;8.8;;
17949;SDS011;9100;48.700;9.316;2022-12-18T12:41:12;16;;;8.8;;
17949;SDS011;9100;48.700;9.316;2022-12-18T12:42:12;16;;;8.8;;
17949;SDS011;9100;48.700;9.316;2022-12-18T12:43:15;16;;;8.8;;
17949;SDS011;9100;48.700;9.316;2022-12-18T12:44:13;16;;;8.8;;
17949;SDS011;9100;48.700;9.316;2022-12-18T12:45:03;19.1;;;12.5;;
17949;SDS011;9100;48.700;9.316;2022-12-18T12:45:15;19.1;;;12.5;;
17949;SDS011;9100;48.700;9.316;2022-12-18T12:46:11;19.1;;;12.5;;
17949;SDS011;9100;48.700;9.316;2022-12-18T12:47:12;19.1;;;12.5;;
17949;SDS011;9100;48.700;9.316;2022-12-18T12:48:13;19.1;;;12.5;;
17949;SDS011;9100;48.700;9.316;2022-12-18T12:49:11;19.1;;;12.5;;
17949;SDS011;9100;48.700;9.316;2022-12-18T12:50:02;24.7;;;17.1;;
17949;SDS011;9100;48.700;9.316;2022-12-18T12:50:13;24.7;;;17.1;;
17949;SDS011;9100;48.700;9.316;2022-12-18T12:51:13;24.7;;;17.1;;
17949;SDS011;9100;48.700;9.316;2022-12-18T12:52:12;24.7;;;17.1;;
17949;SDS011;9100;48.700;9.316;2022-12-18T12:53:16;24.7;;;17.1;;
17949;SDS011;9100;48.700;9.316;2022-12-18T12:54:12;24.7;;;17.1;;
17949;SDS011;9100;48.700;9.316;2022-12-18T12:55:02;18.3;;;13.2;;
17949;SDS011;9100;48.700;9.316;2022-12-18T12:55:13;18.3;;;13.2;;
17949;SDS011;9100;48.700;9.316;2022-12-18T12:56:11;18.3;;;13.2;;
17949;SDS011;9100;48.700;9.316;2022-12-18T12:57:12;18.3;;;13.2;;
17949;SDS011;9100;48.700;9.316;2022-12-18T12:58:12;18.3;;;13.2;;
17949;SDS011;9100;48.700;9.316;2022-12-18T12:59:13;18.3;;;13.2;;
17949;SDS011;9100;48.700;9.316;2022-12-18T13:00:03;24.2;;;16.8;;
17949;SDS011;9100;48.700;9.316;2022-12-18T13:00:11;24.2;;;16.8;;
17949;SDS011;9100;48.700;9.316;2022-12-18T13:01:14;24.2;;;16.8;;
17949;SDS011;9100;48.700;9.316;2022-12-18T13:02:13;24.2;;;16.8;;
17949;SDS011;9100;48.700;9.316;2022-12-18T13:03:12;24.2;;;16.8;;
17949;SDS011;9100;48.700;9.316;2022-12-18T13:04:14;24.2;;;16.8;;
17949;SDS011;9100;48.700;9.316;2022-12-18T13:05:02;25.1;;;15.7;;
17949;SDS011;9100;48.700;9.316;2022-12-18T13:05:14;25.1;;;15.7;;
17949;SDS011;9100;48.700;9.316;2022-12-18T13:06:12;25.1;;;15.7;;
17949;SDS011;9100;48.700;9.316;2022-12-18T13:07:12;25.1;;;15.7;;
17949;SDS011;9100;48.700;9.316;2022-12-18T13:08:12;25.1;;;15.7;;
17949;SDS011;9100;48.700;9.316;2022-12-18T13:09:11;25.1;;;15.7;;
17949;SDS011;9100;48.700;9.316;2022-12-18T13:10:13;32.2;;;18;;
17949;SDS011;9100;48.700;9.316;2022-12-18T13:10:35;32.2;;;18;;
17949;SDS011;9100;48.700;9.316;2022-12-18T13:11:12;32.2;;;18;;
17949;SDS011;9100;48.700;9.316;2022-12-18T13:12:11;32.2;;;18;;
17949;SDS011;9100;48.700;9.316;2022-12-18T13:13:12;32.2;;;18;;
17949;SDS011;9100;48.700;9.316;2022-12-18T13:14:19;32.2;;;18;;
17949;SDS011;9100;48.700;9.316;2022-12-18T13:15:11;29.2;;;18;;
17949;SDS011;9100;48.700;9.316;2022-12-18T13:15:12;29.2;;;18;;
17949;SDS011;9100;48.700;9.316;2022-12-18T13:16:11;29.2;;;18;;
17949;SDS011;9100;48.700;9.316;2022-12-18T13:17:15;29.2;;;18;;
17949;SDS011;9100;48.700;9.316;2022-12-18T13:18:13;29.2;;;18;;
17949;SDS011;9100;48.700;9.316;2022-12-18T13:19:18;29.2;;;18;;
17949;SDS011;9100;48.700;9.316;2022-12-18T13:20:03;28.2;;;18.1;;
17949;SDS011;9100;48.700;9.316;2022-12-18T13:20:11;28.2;;;18.1;;
17949;SDS011;9100;48.700;9.316;2022-12-18T13:21:13;28.2;;;18.1;;
17949;SDS011;9100;48.700;9.316;2022-12-18T13:22:28;28.2;;;18.1;;
17949;SDS011;9100;48.700;9.316;2022-12-18T13:23:28;28.2;;;18.1;;
17949;SDS011;9100;48.700;9.316;2022-12-18T13:24:14;28.2;;;18.1;;
17949;SDS011;9100;48.700;9.316;2022-12-18T13:25:04;28.3;;;16.7;;
17949;SDS011;9100;48.700;9.316;2022-12-18T13:25:28;28.3;;;16.7;;
17949;SDS011;9100;48.700;9.316;2022-12-18T13:26:43;28.3;;;16.7;;
17949;SDS011;9100;48.700;9.316;2022-12-18T13:27:26;28.3;;;16.7;;
17949;SDS011;9100;48.700;9.316;2022-12-18T13:28:12;28.3;;;16.7;;
17949;SDS011;9100;48.700;9.316;2022-12-18T13:29:11;28.3;;;16.7;;
17949;SDS011;9100;48.700;9.316;2022-12-18T13:30:02;30.4;;;18.5;;
17949;SDS011;9100;48.700;9.316;2022-12-18T13:30:34;30.4;;;18.5;;
17949;SDS011;9100;48.700;9.316;2022-12-18T13:31:11;30.4;;;18.5;;
17949;SDS011;9100;48.700;9.316;2022-12-18T13:32:19;30.4;;;18.5;;
17949;SDS011;9100;48.700;9.316;2022-12-18T13:33:44;30.4;;;18.5;;
17949;SDS011;9100;48.700;9.316;2022-12-18T13:34:14;30.4;;;18.5;;
17949;SDS011;9100;48.700;9.316;2022-12-18T13:35:36;35.6;;;19.7;;
17949;SDS011;9100;48.700;9.316;2022-12-18T13:35:50;35.6;;;19.7;;
17949;SDS011;9100;48.700;9.316;2022-12-18T13:36:13;35.6;;;19.7;;
17949;SDS011;9100;48.700;9.316;2022-12-18T13:37:44;35.6;;;19.7;;
17949;SDS011;9100;48.700;9.316;2022-12-18T13:38:20;35.6;;;19.7;;
17949;SDS011;9100;48.700;9.316;2022-12-18T13:39:21;35.6;;;19.7;;
17949;SDS011;9100;48.700;9.316;2022-12-18T13:40:02;30.6;;;17.3;;
17949;SDS011;9100;48.700;9.316;2022-12-18T13:41:29;30.6;;;17.3;;
17949;SDS011;9100;48.700;9.316;2022-12-18T13:42:43;30.6;;;17.3;;
17949;SDS011;9100;48.700;9.316;2022-12-18T13:43:20;30.6;;;17.3;;
17949;SDS011;9100;48.700;9.316;2022-12-18T13:44:12;30.6;;;17.3;;
17949;SDS011;9100;48.700;9.316;2022-12-18T13:45:02;27.1;;;14.5;;
17949;SDS011;9100;48.700;9.316;2022-12-18T13:45:31;27.1;;;14.5;;
17949;SDS011;9100;48.700;9.316;2022-12-18T13:46:19;27.1;;;14.5;;
17949;SDS011;9100;48.700;9.316;2022-12-18T13:47:24;27.1;;;14.5;;
17949;SDS011;9100;48.700;9.316;2022-12-18T13:48:14;27.1;;;14.5;;
17949;SDS011;9100;48.700;9.316;2022-12-18T13:49:17;27.1;;;14.5;;
17949;SDS011;9100;48.700;9.316;2022-12-18T13:50:02;25.4;;;16.3;;
17949;SDS011;9100;48.700;9.316;2022-12-18T13:50:17;25.4;;;16.3;;
17949;SDS011;9100;48.700;9.316;2022-12-18T13:51:11;25.4;;;16.3;;
17949;SDS011;9100;48.700;9.316;2022-12-18T13:52:15;25.4;;;16.3;;
17949;SDS011;9100;48.700;9.316;2022-12-18T13:53:13;25.4;;;16.3;;
17949;SDS011;9100;48.700;9.316;2022-12-18T13:54:13;25.4;;;16.3;;
17949;SDS011;9100;48.700;9.316;2022-12-18T13:55:02;25.8;;;17;;
17949;SDS011;9100;48.700;9.316;2022-12-18T13:55:14;25.8;;;17;;
17949;SDS011;9100;48.700;9.316;2022-12-18T13:56:14;25.8;;;17;;
17949;SDS011;9100;48.700;9.316;2022-12-18T13:57:24;25.8;;;17;;
17949;SDS011;9100;48.700;9.316;2022-12-18T13:58:11;25.8;;;17;;
17949;SDS011;9100;48.700;9.316;2022-12-18T13:59:13;25.8;;;17;;
17949;SDS011;9100;48.700;9.316;2022-12-18T14:00:16;27.4;;;16.1;;
17949;SDS011;9100;48.700;9.316;2022-12-18T14:00:16;27.4;;;16.1;;
17949;SDS011;9100;48.700;9.316;2022-12-18T14:01:27;27.4;;;16.1;;
17949;SDS011;9100;48.700;9.316;2022-12-18T14:02:13;27.4;;;16.1;;
17949;SDS011;9100;48.700;9.316;2022-12-18T14:03:16;27.4;;;16.1;;
17949;SDS011;9100;48.700;9.316;2022-12-18T14:04:12;27.4;;;16.1;;
17949;SDS011;9100;48.700;9.316;2022-12-18T14:05:01;30.7;;;17.4;;
17949;SDS011;9100;48.700;9.316;2022-12-18T14:05:21;30.7;;;17.4;;
17949;SDS011;9100;48.700;9.316;2022-12-18T14:06:11;30.7;;;17.4;;
17949;SDS011;9100;48.700;9.316;2022-12-18T14:07:12;30.7;;;17.4;;
17949;SDS011;9100;48.700;9.316;2022-12-18T14:08:12;30.7;;;17.4;;
17949;SDS011;9100;48.700;9.316;2022-12-18T14:09:13;30.7;;;17.4;;
17949;SDS011;9100;48.700;9.316;2022-12-18T14:10:02;25.9;;;14.9;;
17949;SDS011;9100;48.700;9.316;2022-12-18T14:10:11;25.9;;;14.9;;
17949;SDS011;9100;48.700;9.316;2022-12-18T14:11:18;25.9;;;14.9;;
17949;SDS011;9100;48.700;9.316;2022-12-18T14:12:14;25.9;;;14.9;;
17949;SDS011;9100;48.700;9.316;2022-12-18T14:13:15;25.9;;;14.9;;
17949;SDS011;9100;48.700;9.316;2022-12-18T14:14:12;25.9;;;14.9;;
17949;SDS011;9100;48.700;9.316;2022-12-18T14:15:02;21.9;;;16.1;;
17949;SDS011;9100;48.700;9.316;2022-12-18T14:15:14;21.9;;;16.1;;
17949;SDS011;9100;48.700;9.316;2022-12-18T14:16:12;21.9;;;16.1;;
17949;SDS011;9100;48.700;9.316;2022-12-18T14:17:11;21.9;;;16.1;;
17949;SDS011;9100;48.700;9.316;2022-12-18T14:18:15;21.9;;;16.1;;
17949;SDS011;9100;48.700;9.316;2022-12-18T14:19:12;21.9;;;16.1;;
17949;SDS011;9100;48.700;9.316;2022-12-18T14:20:02;26.6;;;16.9;;
17949;SDS011;9100;48.700;9.316;2022-12-18T14:20:13;26.6;;;16.9;;
17949;SDS011;9100;48.700;9.316;2022-12-18T14:21:20;26.6;;;16.9;;
17949;SDS011;9100;48.700;9.316;2022-12-18T14:22:15;26.6;;;16.9;;
17949;SDS011;9100;48.700;9.316;2022-12-18T14:23:24;26.6;;;16.9;;
17949;SDS011;9100;48.700;9.316;2022-12-18T14:24:13;26.6;;;16.9;;
17949;SDS011;9100;48.700;9.316;2022-12-18T14:25:10;33;;;17.6;;
17949;SDS011;9100;48.700;9.316;2022-12-18T14:25:15;33;;;17.6;;
17949;SDS011;9100;48.700;9.316;2022-12-18T14:26:28;33;;;17.6;;
17949;SDS011;9100;48.700;9.316;2022-12-18T14:27:13;33;;;17.6;;
17949;SDS011;9100;48.700;9.316;2022-12-18T14:28:12;33;;;17.6;;
17949;SDS011;9100;48.700;9.316;2022-12-18T14:29:28;33;;;17.6;;
17949;SDS011;9100;48.700;9.316;2022-12-18T14:30:03;23.2;;;15;;
17949;SDS011;9100;48.700;9.316;2022-12-18T14:30:23;23.2;;;15;;
17949;SDS011;9100;48.700;9.316;2022-12-18T14:31:16;23.2;;;15;;
17949;SDS011;9100;48.700;9.316;2022-12-18T14:32:11;23.2;;;15;;
17949;SDS011;9100;48.700;9.316;2022-12-18T14:33:12;23.2;;;15;;
17949;SDS011;9100;48.700;9.316;2022-12-18T14:34:14;23.2;;;15;;
17949;SDS011;9100;48.700;9.316;2022-12-18T14:35:12;30.1;;;17.3;;
17949;SDS011;9100;48.700;9.316;2022-12-18T14:35:12;30.1;;;17.3;;
17949;SDS011;9100;48.700;9.316;2022-12-18T14:36:13;30.1;;;17.3;;
17949;SDS011;9100;48.700;9.316;2022-12-18T14:37:12;30.1;;;17.3;;
17949;SDS011;9100;48.700;9.316;2022-12-18T14:38:28;30.1;;;17.3;;
17949;SDS011;9100;48.700;9.316;2022-12-18T14:39:13;30.1;;;17.3;;
17949;SDS011;9100;48.700;9.316;2022-12-18T14:40:03;32.6;;;17.8;;
17949;SDS011;9100;48.700;9.316;2022-12-18T14:40:11;32.6;;;17.8;;
17949;SDS011;9100;48.700;9.316;2022-12-18T14:41:12;32.6;;;17.8;;
17949;SDS011;9100;48.700;9.316;2022-12-18T14:42:11;32.6;;;17.8;;
17949;SDS011;9100;48.700;9.316;2022-12-18T14:43:11;32.6;;;17.8;;
17949;SDS011;9100;48.700;9.316;2022-12-18T14:44:12;32.6;;;17.8;;
17949;SDS011;9100;48.700;9.316;2022-12-18T14:45:35;29.4;;;17.3;;
17949;SDS011;9100;48.700;9.316;2022-12-18T14:45:43;29.4;;;17.3;;
17949;SDS011;9100;48.700;9.316;2022-12-18T14:46:25;29.4;;;17.3;;
17949;SDS011;9100;48.700;9.316;2022-12-18T14:47:13;29.4;;;17.3;;
17949;SDS011;9100;48.700;9.316;2022-12-18T14:48:14;29.4;;;17.3;;
17949;SDS011;9100;48.700;9.316;2022-12-18T14:49:17;29.4;;;17.3;;
17949;SDS011;9100;48.700;9.316;2022-12-18T14:50:01;27.1;;;16.8;;
17949;SDS011;9100;48.700;9.316;2022-12-18T14:50:12;27.1;;;16.8;;
17949;SDS011;9100;48.700;9.316;2022-12-18T14:51:15;27.1;;;16.8;;
17949;SDS011;9100;48.700;9.316;2022-12-18T14:52:17;27.1;;;16.8;;
17949;SDS011;9100;48.700;9.316;2022-12-18T14:53:19;27.1;;;16.8;;
17949;SDS011;9100;48.700;9.316;2022-12-18T14:54:14;27.1;;;16.8;;
17949;SDS011;9100;48.700;9.316;2022-12-18T14:55:01;34.9;;;23.4;;
17949;SDS011;9100;48.700;9.316;2022-12-18T14:55:14;34.9;;;23.4;;
17949;SDS011;9100;48.700;9.316;2022-12-18T14:56:14;34.9;;;23.4;;
17949;SDS011;9100;48.700;9.316;2022-12-18T14:57:15;34.9;;;23.4;;
17949;SDS011;9100;48.700;9.316;2022-12-18T14:58:11;34.9;;;23.4;;
17949;SDS011;9100;48.700;9.316;2022-12-18T14:59:12;34.9;;;23.4;;
17949;SDS011;9100;48.700;9.316;2022-12-18T15:00:04;29.4;;;16.9;;
17949;SDS011;9100;48.700;9.316;2022-12-18T15:00:14;29.4;;;16.9;;
17949;SDS011;9100;48.700;9.316;2022-12-18T15:01:17;29.4;;;16.9;;
17949;SDS011;9100;48.700;9.316;2022-12-18T15:02:15;29.4;;;16.9;;
17949;SDS011;9100;48.700;9.316;2022-12-18T15:03:12;29.4;;;16.9;;
17949;SDS011;9100;48.700;9.316;2022-12-18T15:04:22;29.4;;;16.9;;
17949;SDS011;9100;48.700;9.316;2022-12-18T15:05:02;23.3;;;12.9;;
17949;SDS011;9100;48.700;9.316;2022-12-18T15:05:16;23.3;;;12.9;;
17949;SDS011;9100;48.700;9.316;2022-12-18T15:06:15;23.3;;;12.9;;
17949;SDS011;9100;48.700;9.316;2022-12-18T15:07:12;23.3;;;12.9;;
17949;SDS011;9100;48.700;9.316;2022-12-18T15:08:26;23.3;;;12.9;;
17949;SDS011;9100;48.700;9.316;2022-12-18T15:09:20;23.3;;;12.9;;
17949;SDS011;9100;48.700;9.316;2022-12-18T15:10:03;30.3;;;19.3;;
17949;SDS011;9100;48.700;9.316;2022-12-18T15:10:12;30.3;;;19.3;;
17949;SDS011;9100;48.700;9.316;2022-12-18T15:11:28;30.3;;;19.3;;
17949;SDS011;9100;48.700;9.316;2022-12-18T15:12:19;30.3;;;19.3;;
17949;SDS011;9100;48.700;9.316;2022-12-18T15:13:15;30.3;;;19.3;;
17949;SDS011;9100;48.700;9.316;2022-12-18T15:14:43;30.3;;;19.3;;
17949;SDS011;9100;48.700;9.316;2022-12-18T15:15:02;36.4;;;20.7;;
17949;SDS011;9100;48.700;9.316;2022-12-18T15:15:41;36.4;;;20.7;;
17949;SDS011;9100;48.700;9.316;2022-12-18T15:16:11;36.4;;;20.7;;
17949;SDS011;9100;48.700;9.316;2022-12-18T15:17:16;36.4;;;20.7;;
17949;SDS011;9100;48.700;9.316;2022-12-18T15:18:12;36.4;;;20.7;;
17949;SDS011;9100;48.700;9.316;2022-12-18T15:19:11;36.4;;;20.7;;
17949;SDS011;9100;48.700;9.316;2022-12-18T15:20:02;31.5;;;19.3;;
17949;SDS011;9100;48.700;9.316;2022-12-18T15:20:11;31.5;;;19.3;;
17949;SDS011;9100;48.700;9.316;2022-12-18T15:21:15;31.5;;;19.3;;
17949;SDS011;9100;48.700;9.316;2022-12-18T15:22:17;31.5;;;19.3;;
17949;SDS011;9100;48.700;9.316;2022-12-18T15:23:13;31.5;;;19.3;;
17949;SDS011;9100;48.700;9.316;2022-12-18T15:24:15;31.5;;;19.3;;
17949;SDS011;9100;48.700;9.316;2022-12-18T15:25:02;24.4;;;17.2;;
17949;SDS011;9100;48.700;9.316;2022-12-18T15:25:21;24.4;;;17.2;;
17949;SDS011;9100;48.700;9.316;2022-12-18T15:26:12;24.4;;;17.2;;
17949;SDS011;9100;48.700;9.316;2022-12-18T15:27:19;24.4;;;17.2;;
17949;SDS011;9100;48.700;9.316;2022-12-18T15:28:15;24.4;;;17.2;;